Time;durP1;ratioP1;P1;durP2;ratioP2;P2;SDS_P1;SDS_P2;PMS_P1;PMS_P2;Temp;Humidity;BMP_temperature;BMP_pressure;BME280_temperature;BME280_humidity;BME280_pressure;Samples;Min_cycle;Max_cycle;Signal;HPM_P1;HPM_P2
2022/07/30 00:02:18;;;;;;;5.75;4.63;;;24.20;62.10;;;;;;5009114;28;20041;-49
2022/07/30 00:04:45;;;;;;;5.65;4.80;;;24.10;62.00;;;;;;5004318;28;20060;-49
2022/07/30 00:07:11;;;;;;;5.20;4.10;;;24.10;62.20;;;;;;5001622;28;20026;-50
2022/07/30 00:09:37;;;;;;;5.40;4.00;;;24.00;62.60;;;;;;5003238;28;20044;-50
2022/07/30 00:12:06;;;;;;;5.03;3.17;;;24.00;62.40;;;;;;5003707;28;20026;-50
2022/07/30 00:14:33;;;;;;;4.93;3.50;;;23.90;62.80;;;;;;5003993;28;20022;-49
2022/07/30 00:17:00;;;;;;;5.70;3.25;;;23.80;62.70;;;;;;4999992;28;20033;-49
2022/07/30 00:19:26;;;;;;;3.95;3.15;;;23.70;62.70;;;;;;5004025;28;20030;-50
2022/07/30 00:21:53;;;;;;;3.60;2.72;;;23.70;62.70;;;;;;5003715;28;20616;-52
2022/07/30 00:24:19;;;;;;;4.18;2.55;;;23.70;62.90;;;;;;5010020;28;20108;-49
2022/07/30 00:26:45;;;;;;;4.07;2.63;;;23.70;62.90;;;;;;5017789;28;20080;-49
2022/07/30 00:29:10;;;;;;;3.38;2.22;;;23.70;62.90;;;;;;5002699;28;20026;-50
2022/07/30 00:31:36;;;;;;;4.28;2.17;;;23.60;62.80;;;;;;5001884;28;20061;-49
2022/07/30 00:34:02;;;;;;;3.88;2.33;;;23.60;62.80;;;;;;5001981;28;20037;-50
2022/07/30 00:36:28;;;;;;;3.83;2.03;;;23.60;63.20;;;;;;5003217;28;20105;-49
2022/07/30 00:38:53;;;;;;;3.88;1.88;;;23.60;62.90;;;;;;5003208;28;20034;-49
2022/07/30 00:41:19;;;;;;;3.35;1.90;;;23.50;62.80;;;;;;5003672;28;20029;-50
2022/07/30 00:43:45;;;;;;;3.10;1.55;;;23.50;63.00;;;;;;5003826;28;20018;-50
2022/07/30 00:46:13;;;;;;;2.45;1.40;;;23.50;62.90;;;;;;5002725;28;20021;-49
2022/07/30 00:48:39;;;;;;;2.55;1.35;;;23.50;63.00;;;;;;5001952;28;20091;-49
2022/07/30 00:51:05;;;;;;;3.40;1.50;;;23.60;62.80;;;;;;5001687;28;20034;-50
2022/07/30 00:53:31;;;;;;;2.30;1.10;;;23.50;62.70;;;;;;5003452;28;20045;-49
2022/07/30 00:55:56;;;;;;;2.00;1.30;;;23.60;62.80;;;;;;5003601;28;20029;-48
2022/07/30 00:58:22;;;;;;;3.78;1.50;;;23.50;62.80;;;;;;5003803;28;20053;-50
2022/07/30 01:00:48;;;;;;;2.42;1.10;;;23.50;62.80;;;;;;5001715;28;20026;-50
2022/07/30 01:03:14;;;;;;;2.50;1.20;;;23.50;62.80;;;;;;5016413;28;20022;-50
2022/07/30 01:05:39;;;;;;;1.77;1.20;;;23.50;62.80;;;;;;5003083;28;20029;-49
2022/07/30 01:08:05;;;;;;;1.92;1.05;;;23.50;62.70;;;;;;5002344;28;20029;-48
2022/07/30 01:10:31;;;;;;;3.92;1.45;;;23.50;62.60;;;;;;5002842;28;20033;-49
2022/07/30 01:12:58;;;;;;;2.70;1.33;;;23.40;62.60;;;;;;5002962;28;20378;-49
2022/07/30 01:15:24;;;;;;;2.05;0.95;;;23.30;62.90;;;;;;5001644;28;20030;-50
2022/07/30 01:17:54;;;;;;;2.65;1.05;;;23.30;63.20;;;;;;5001367;28;20033;-50
2022/07/30 01:20:28;;;;;;;1.80;1.00;;;23.30;63.10;;;;;;5002640;28;20026;-49
2022/07/30 01:23:09;;;;;;;2.65;1.20;;;23.30;63.30;;;;;;5002086;28;20022;-49
2022/07/30 01:25:57;;;;;;;2.08;1.10;;;23.30;63.30;;;;;;5002355;28;20057;-49
2022/07/30 01:28:27;;;;;;;1.77;1.00;;;23.30;63.30;;;;;;5002392;28;20022;-49
2022/07/30 01:30:55;;;;;;;1.98;1.05;;;23.30;63.20;;;;;;5002133;28;20080;-50
2022/07/30 01:33:22;;;;;;;1.58;0.80;;;23.20;62.90;;;;;;4999633;28;20037;-50
2022/07/30 01:35:49;;;;;;;2.25;1.10;;;23.10;63.10;;;;;;5002498;28;20030;-50
2022/07/30 01:38:20;;;;;;;1.90;1.10;;;23.10;63.40;;;;;;5002974;28;20040;-50
2022/07/30 01:40:48;;;;;;;2.65;1.20;;;23.00;63.60;;;;;;5002232;28;20107;-50
2022/07/30 01:43:15;;;;;;;2.97;1.08;;;23.00;63.60;;;;;;5002696;28;20030;-50
2022/07/30 01:45:42;;;;;;;2.10;1.00;;;23.00;63.60;;;;;;5003276;28;20033;-49
2022/07/30 01:48:10;;;;;;;3.67;1.40;;;23.00;63.70;;;;;;5002637;28;20041;-49
2022/07/30 01:50:36;;;;;;;2.15;1.00;;;23.00;63.80;;;;;;5003359;28;20030;-49
2022/07/30 01:53:02;;;;;;;2.00;1.08;;;23.00;63.60;;;;;;5002641;28;20022;-49
2022/07/30 01:55:38;;;;;;;1.85;1.00;;;23.10;63.80;;;;;;5018797;28;20053;-49
2022/07/30 01:58:05;;;;;;;2.55;1.10;;;23.10;63.50;;;;;;5023323;28;20421;-50
2022/07/30 02:00:35;;;;;;;1.85;1.10;;;23.10;63.50;;;;;;5022645;28;20029;-49
2022/07/30 02:03:01;;;;;;;2.90;1.10;;;23.10;63.40;;;;;;5007733;28;20050;-48
2022/07/30 02:05:31;;;;;;;1.75;1.00;;;23.10;63.20;;;;;;5002776;28;20119;-48
2022/07/30 02:08:09;;;;;;;2.22;0.88;;;23.10;63.10;;;;;;5003832;28;20409;-50
2022/07/30 02:10:56;;;;;;;2.47;1.02;;;23.10;63.30;;;;;;5003105;28;20105;-48
2022/07/30 02:13:26;;;;;;;2.67;1.10;;;23.10;63.50;;;;;;5003465;28;20547;-50
2022/07/30 02:16:02;;;;;;;2.30;1.05;;;23.10;63.60;;;;;;5002653;28;20033;-49
2022/07/30 02:18:39;;;;;;;2.17;1.08;;;23.00;63.60;;;;;;5002986;28;20113;-49
2022/07/30 02:21:07;;;;;;;3.22;1.55;;;23.00;63.70;;;;;;5002812;28;20022;-49
2022/07/30 02:23:40;;;;;;;1.98;1.02;;;23.00;63.70;;;;;;5002704;28;20047;-49
2022/07/30 02:26:08;;;;;;;2.88;1.30;;;23.00;63.90;;;;;;5002038;28;20062;-49
2022/07/30 02:28:39;;;;;;;2.25;1.10;;;22.90;64.50;;;;;;5002608;28;20498;-49
2022/07/30 02:31:08;;;;;;;3.03;1.42;;;22.90;64.10;;;;;;5002570;28;20475;-49
2022/07/30 02:33:39;;;;;;;2.67;1.30;;;22.80;64.10;;;;;;5001932;28;20805;-49
2022/07/30 02:36:08;;;;;;;2.63;1.30;;;22.80;64.00;;;;;;5002801;28;20506;-49
2022/07/30 02:38:35;;;;;;;3.28;1.65;;;22.80;64.20;;;;;;5002863;28;20072;-48
2022/07/30 02:41:03;;;;;;;2.85;1.63;;;22.70;64.10;;;;;;5003059;28;20025;-48
2022/07/30 02:43:29;;;;;;;3.20;1.90;;;22.60;64.40;;;;;;5002769;28;20045;-50
2022/07/30 02:45:56;;;;;;;2.58;1.63;;;22.60;64.60;;;;;;5002212;28;20474;-49
2022/07/30 02:48:23;;;;;;;3.13;1.67;;;22.60;64.40;;;;;;5001094;28;20510;-48
2022/07/30 02:50:52;;;;;;;2.75;1.63;;;22.60;64.40;;;;;;5002218;28;20510;-48
2022/07/30 02:53:19;;;;;;;4.15;1.70;;;22.60;64.20;;;;;;5004666;28;20060;-48
2022/07/30 02:55:47;;;;;;;3.47;2.25;;;22.50;64.20;;;;;;5023544;28;20033;-49
2022/07/30 02:58:19;;;;;;;3.55;1.92;;;22.60;64.20;;;;;;5025604;28;20056;-48
2022/07/30 03:00:45;;;;;;;3.10;2.00;;;22.50;64.20;;;;;;5026054;28;20030;-48
2022/07/30 03:03:12;;;;;;;3.20;1.98;;;22.50;64.20;;;;;;5011163;28;20571;-49
2022/07/30 03:05:40;;;;;;;3.40;2.00;;;22.50;64.40;;;;;;5002529;28;20370;-48
2022/07/30 03:08:08;;;;;;;3.10;1.90;;;22.50;64.30;;;;;;4998544;28;20029;-47
2022/07/30 03:10:35;;;;;;;2.97;1.92;;;22.50;64.20;;;;;;5005466;28;20709;-49
2022/07/30 03:13:04;;;;;;;4.18;2.55;;;22.60;64.00;;;;;;5005328;28;20018;-49
2022/07/30 03:15:33;;;;;;;3.85;2.10;;;22.60;63.40;;;;;;5005259;28;20065;-49
2022/07/30 03:18:01;;;;;;;3.63;2.35;;;22.60;63.40;;;;;;5005986;28;20049;-49
2022/07/30 03:20:30;;;;;;;3.72;2.80;;;22.60;63.30;;;;;;5004860;28;20434;-49
2022/07/30 03:22:57;;;;;;;3.95;2.30;;;22.50;63.50;;;;;;5005556;28;20052;-48
2022/07/30 03:25:25;;;;;;;3.97;2.40;;;22.50;63.80;;;;;;5020128;28;20021;-49
2022/07/30 03:27:54;;;;;;;3.33;2.30;;;22.50;63.70;;;;;;5025210;28;20036;-47
2022/07/30 03:30:23;;;;;;;5.35;2.70;;;22.50;63.80;;;;;;5024956;28;20028;-50
2022/07/30 03:32:50;;;;;;;4.53;2.60;;;22.40;63.70;;;;;;5014044;28;20041;-49
2022/07/30 03:35:17;;;;;;;3.88;2.58;;;22.40;63.70;;;;;;5005115;28;20040;-48
2022/07/30 03:37:43;;;;;;;4.28;2.95;;;22.40;64.70;;;;;;5004362;28;20033;-48
2022/07/30 03:40:09;;;;;;;3.97;2.47;;;22.30;63.90;;;;;;5004581;28;20109;-49
2022/07/30 03:42:36;;;;;;;4.82;3.03;;;22.40;64.10;;;;;;5004698;28;20026;-49
2022/07/30 03:45:07;;;;;;;3.75;2.40;;;22.40;63.60;;;;;;5004794;28;20073;-49
2022/07/30 03:47:37;;;;;;;3.20;2.20;;;22.40;63.90;;;;;;5004202;28;20029;-48
2022/07/30 03:50:04;;;;;;;3.33;2.20;;;22.40;63.80;;;;;;5005349;28;20026;-48
2022/07/30 03:52:33;;;;;;;4.13;2.40;;;22.40;63.70;;;;;;5005019;28;20601;-48
2022/07/30 03:55:00;;;;;;;3.30;2.25;;;22.50;63.60;;;;;;5003748;28;20037;-49
2022/07/30 03:57:26;;;;;;;3.97;2.30;;;22.50;63.00;;;;;;5005139;28;20034;-48
2022/07/30 03:59:52;;;;;;;3.13;2.15;;;22.50;63.40;;;;;;5004842;28;20026;-49
2022/07/30 04:02:17;;;;;;;2.95;1.83;;;22.60;63.30;;;;;;5005184;28;20030;-48
2022/07/30 04:04:43;;;;;;;3.70;1.95;;;22.60;62.90;;;;;;5003949;28;20056;-49
2022/07/30 04:07:09;;;;;;;3.80;2.00;;;22.60;62.80;;;;;;5004351;28;20036;-49
2022/07/30 04:09:35;;;;;;;3.30;2.03;;;22.60;62.50;;;;;;5004537;28;20155;-48
2022/07/30 04:12:00;;;;;;;3.20;1.58;;;22.70;62.70;;;;;;5004164;28;20030;-53
2022/07/30 04:14:37;;;;;;;2.70;1.60;;;22.70;62.40;;;;;;5004485;28;20525;-49
2022/07/30 04:17:05;;;;;;;3.63;2.15;;;22.70;62.40;;;;;;5004352;28;20049;-48
2022/07/30 04:19:38;;;;;;;3.50;1.98;;;22.70;62.10;;;;;;5004375;28;20109;-49
2022/07/30 04:22:04;;;;;;;;;;;22.70;62.20;;;;;;5004790;28;20026;-47
2022/07/30 04:24:31;;;;;;;3.17;1.77;;;22.60;62.20;;;;;;5012804;28;20392;-48
2022/07/30 04:26:59;;;;;;;2.50;1.67;;;22.60;62.60;;;;;;5024105;28;20108;-49
2022/07/30 04:29:25;;;;;;;2.72;1.58;;;22.60;62.50;;;;;;5024335;28;20104;-49
2022/07/30 04:31:53;;;;;;;3.30;2.10;;;22.70;62.60;;;;;;5022121;28;20133;-48
2022/07/30 04:34:19;;;;;;;3.25;2.03;;;22.70;62.50;;;;;;5004304;28;20113;-49
2022/07/30 04:36:45;;;;;;;2.80;1.90;;;22.70;62.40;;;;;;5004000;28;20121;-49
2022/07/30 04:39:11;;;;;;;3.63;2.00;;;22.60;62.30;;;;;;5003652;28;20651;-48
2022/07/30 04:41:38;;;;;;;3.50;1.95;;;22.70;62.50;;;;;;5004055;28;20088;-50
2022/07/30 04:44:04;;;;;;;3.40;2.08;;;22.70;62.50;;;;;;5004148;28;20026;-50
2022/07/30 04:46:30;;;;;;;3.42;1.90;;;22.70;62.40;;;;;;5003756;28;20391;-49
2022/07/30 04:48:56;;;;;;;3.90;2.20;;;22.70;62.60;;;;;;5004211;28;20091;-49
2022/07/30 04:51:31;;;;;;;2.75;1.95;;;22.70;62.40;;;;;;5003903;28;20030;-48
2022/07/30 04:53:58;;;;;;;3.60;1.88;;;22.70;62.50;;;;;;5004002;28;20029;-49
2022/07/30 04:56:25;;;;;;;3.65;2.30;;;22.70;62.60;;;;;;5002311;28;20037;-48
2022/07/30 04:58:51;;;;;;;3.45;2.22;;;22.60;62.80;;;;;;5004321;28;20033;-49
2022/07/30 05:01:38;;;;;;;4.22;2.10;;;22.60;62.90;;;;;;5003959;28;20710;-49
2022/07/30 05:04:05;;;;;;;3.33;2.13;;;22.60;62.90;;;;;;5003470;28;20401;-48
2022/07/30 05:06:32;;;;;;;3.30;1.92;;;22.60;63.10;;;;;;5003186;28;20489;-49
2022/07/30 05:08:57;;;;;;;2.85;2.00;;;22.60;62.90;;;;;;5003681;28;20025;-48
2022/07/30 05:11:23;;;;;;;3.58;2.13;;;22.60;62.90;;;;;;5004249;28;20052;-48
2022/07/30 05:13:49;;;;;;;3.63;2.22;;;22.60;63.00;;;;;;5003463;28;20029;-49
2022/07/30 05:16:15;;;;;;;3.63;2.20;;;22.60;63.00;;;;;;5034796;28;20034;-48
2022/07/30 05:18:41;;;;;;;5.50;2.65;;;22.70;62.80;;;;;;5003467;28;20041;-49
2022/07/30 05:21:07;;;;;;;3.38;2.08;;;22.70;63.10;;;;;;5003403;28;20033;-48
2022/07/30 05:23:34;;;;;;;3.58;2.10;;;22.70;63.20;;;;;;5003864;28;20109;-48
2022/07/30 05:26:00;;;;;;;3.75;2.53;;;22.70;63.70;;;;;;5004913;28;20701;-48
2022/07/30 05:28:26;;;;;;;3.55;2.30;;;22.60;63.90;;;;;;5023489;28;20052;-48
2022/07/30 05:30:55;;;;;;;2.88;2.00;;;22.60;64.20;;;;;;5022727;28;20014;-47
2022/07/30 05:33:22;;;;;;;4.05;1.92;;;22.60;64.20;;;;;;5010095;28;20083;-49
2022/07/30 05:35:48;;;;;;;2.97;2.20;;;22.60;64.60;;;;;;5003229;28;20029;-49
2022/07/30 05:38:17;;;;;;;3.08;1.90;;;22.50;64.60;;;;;;5002763;28;20018;-48
2022/07/30 05:40:43;;;;;;;3.58;1.95;;;22.50;64.80;;;;;;4998092;28;20125;-49
2022/07/30 05:43:09;;;;;;;3.85;1.83;;;22.60;64.70;;;;;;5002554;28;20021;-49
2022/07/30 05:45:35;;;;;;;3.15;1.60;;;22.60;64.90;;;;;;5002759;28;20038;-50
2022/07/30 05:48:01;;;;;;;2.53;1.67;;;22.50;64.90;;;;;;5003139;28;20052;-49
2022/07/30 05:50:26;;;;;;;3.25;1.90;;;22.50;65.00;;;;;;5035268;28;20121;-49
2022/07/30 05:52:52;;;;;;;2.78;1.67;;;22.50;65.30;;;;;;5003135;28;20030;-49
2022/07/30 05:55:18;;;;;;;3.30;1.98;;;22.50;65.30;;;;;;5017043;28;20026;-49
2022/07/30 05:57:44;;;;;;;2.92;1.52;;;22.40;65.70;;;;;;5022623;28;20672;-49
2022/07/30 06:00:11;;;;;;;2.75;1.75;;;22.40;65.80;;;;;;5022272;28;20030;-49
2022/07/30 06:02:39;;;;;;;2.72;1.63;;;22.40;66.20;;;;;;5015160;28;20544;-49
2022/07/30 06:05:05;;;;;;;2.47;1.60;;;22.20;66.60;;;;;;5002596;28;20026;-51
2022/07/30 06:07:31;;;;;;;2.70;1.48;;;22.20;66.70;;;;;;5000197;28;20014;-49
2022/07/30 06:10:00;;;;;;;2.88;1.50;;;22.20;67.00;;;;;;5002200;28;20033;-49
2022/07/30 06:12:30;;;;;;;2.53;1.60;;;22.20;66.70;;;;;;4998274;28;20802;-48
2022/07/30 06:14:57;;;;;;;2.47;1.50;;;22.20;67.10;;;;;;5002650;28;20093;-49
2022/07/30 06:17:23;;;;;;;3.40;1.80;;;22.20;67.10;;;;;;5002028;28;20120;-49
2022/07/30 06:19:49;;;;;;;2.45;1.55;;;22.20;67.10;;;;;;5003378;28;20644;-48
2022/07/30 06:22:16;;;;;;;2.70;1.50;;;22.20;67.20;;;;;;5002471;28;20034;-48
2022/07/30 06:24:41;;;;;;;2.35;1.40;;;22.20;67.50;;;;;;5012790;28;20030;-48
2022/07/30 06:27:08;;;;;;;2.88;1.52;;;22.20;67.50;;;;;;5022923;28;20033;-48
2022/07/30 06:29:34;;;;;;;2.22;1.35;;;22.10;68.00;;;;;;5016730;28;20033;-48
2022/07/30 06:31:59;;;;;;;3.65;1.38;;;22.10;67.80;;;;;;5006014;28;20634;-49
2022/07/30 06:34:25;;;;;;;3.25;1.40;;;22.10;67.90;;;;;;5006887;28;20033;-48
2022/07/30 06:36:50;;;;;;;2.63;1.50;;;22.10;68.10;;;;;;5006083;28;20022;-48
2022/07/30 06:39:16;;;;;;;2.38;1.30;;;22.10;68.20;;;;;;5006280;28;20667;-48
2022/07/30 06:41:42;;;;;;;2.53;1.63;;;22.10;68.30;;;;;;5007281;28;20028;-50
2022/07/30 06:44:07;;;;;;;2.45;1.50;;;22.00;68.20;;;;;;5006523;28;20565;-49
2022/07/30 06:46:33;;;;;;;2.25;1.45;;;22.10;68.30;;;;;;5005823;28;20040;-47
2022/07/30 06:48:59;;;;;;;3.92;1.80;;;22.10;68.30;;;;;;5005737;28;20057;-48
2022/07/30 06:51:24;;;;;;;2.80;1.33;;;22.10;68.30;;;;;;5005512;28;20406;-49
2022/07/30 06:53:50;;;;;;;2.50;1.40;;;22.10;68.30;;;;;;5005934;28;20398;-48
2022/07/30 06:56:16;;;;;;;2.55;1.52;;;22.10;68.60;;;;;;5004604;28;20030;-50
2022/07/30 06:58:41;;;;;;;3.78;1.63;;;22.00;68.30;;;;;;5037565;28;20026;-51
2022/07/30 07:01:07;;;;;;;3.22;1.65;;;22.10;68.50;;;;;;5005902;28;20037;-49
2022/07/30 07:03:33;;;;;;;2.60;1.42;;;22.10;68.30;;;;;;5004507;28;20595;-49
2022/07/30 07:05:59;;;;;;;3.58;1.50;;;22.10;68.50;;;;;;5000800;28;20632;-51
2022/07/30 07:08:25;;;;;;;3.55;1.60;;;22.10;68.00;;;;;;4991272;28;20121;-51
2022/07/30 07:10:51;;;;;;;2.95;1.55;;;22.10;68.50;;;;;;4993237;28;20030;-49
2022/07/30 07:13:16;;;;;;;2.65;1.23;;;22.10;68.40;;;;;;5005210;28;20026;-50
2022/07/30 07:15:42;;;;;;;5.05;1.90;;;22.10;68.70;;;;;;5002813;28;20112;-50
2022/07/30 07:18:08;;;;;;;7.50;2.25;;;22.10;68.90;;;;;;5002869;28;20103;-47
2022/07/30 07:20:34;;;;;;;6.20;1.98;;;22.20;69.40;;;;;;4998271;28;20040;-49
2022/07/30 07:23:00;;;;;;;5.05;1.90;;;22.20;70.00;;;;;;5004110;28;20041;-49
2022/07/30 07:25:26;;;;;;;5.25;1.80;;;22.20;68.90;;;;;;5003611;28;20022;-47
2022/07/30 07:27:52;;;;;;;2.72;1.52;;;22.30;68.50;;;;;;5004669;28;20521;-48
2022/07/30 07:30:17;;;;;;;3.45;1.40;;;22.30;68.00;;;;;;5004742;28;20034;-48
2022/07/30 07:32:43;;;;;;;3.30;1.83;;;22.40;67.70;;;;;;5004801;28;20113;-49
2022/07/30 07:35:09;;;;;;;2.47;1.40;;;22.40;67.80;;;;;;5004655;28;20085;-50
2022/07/30 07:37:35;;;;;;;2.92;1.38;;;22.50;67.50;;;;;;5004253;28;20018;-48
2022/07/30 07:40:01;;;;;;;3.60;1.60;;;22.50;67.50;;;;;;5003417;28;20042;-48
2022/07/30 07:42:26;;;;;;;2.47;1.48;;;22.50;67.30;;;;;;5004752;28;20072;-50
2022/07/30 07:44:52;;;;;;;2.42;1.25;;;22.50;67.00;;;;;;5004179;28;20466;-49
2022/07/30 07:47:18;;;;;;;3.10;1.60;;;22.50;67.30;;;;;;5004643;28;20029;-48
2022/07/30 07:49:43;;;;;;;2.70;1.40;;;22.50;67.20;;;;;;5004143;28;20125;-50
2022/07/30 07:52:09;;;;;;;3.10;1.52;;;22.40;67.00;;;;;;5004084;28;20022;-48
2022/07/30 07:54:35;;;;;;;3.53;1.48;;;22.40;67.30;;;;;;5006672;28;20036;-48
2022/07/30 07:57:00;;;;;;;2.50;1.50;;;22.50;68.20;;;;;;5009651;28;20033;-48
2022/07/30 07:59:26;;;;;;;2.70;1.60;;;22.50;68.10;;;;;;5016153;28;20119;-49
2022/07/30 08:01:51;;;;;;;2.72;1.48;;;22.60;67.70;;;;;;5003344;28;20026;-48
2022/07/30 08:04:17;;;;;;;3.28;1.45;;;22.60;67.30;;;;;;5001832;28;20049;-48
2022/07/30 08:06:43;;;;;;;2.38;1.42;;;22.50;67.40;;;;;;5003218;28;20033;-47
2022/07/30 08:09:08;;;;;;;2.72;1.50;;;22.50;67.90;;;;;;5003781;28;20025;-48
2022/07/30 08:11:34;;;;;;;2.75;1.55;;;22.50;68.10;;;;;;5001153;28;20403;-49
2022/07/30 08:14:00;;;;;;;2.78;1.45;;;22.60;69.30;;;;;;5002348;28;20025;-48
2022/07/30 08:16:25;;;;;;;2.88;1.48;;;22.60;68.10;;;;;;5022987;28;20087;-48
2022/07/30 08:18:51;;;;;;;2.92;1.70;;;22.60;68.00;;;;;;5008872;28;20562;-48
2022/07/30 08:21:17;;;;;;;3.20;1.30;;;22.70;68.10;;;;;;5004507;28;20371;-49
2022/07/30 08:23:43;;;;;;;2.78;1.63;;;22.70;67.50;;;;;;5004665;28;20038;-47
2022/07/30 08:26:08;;;;;;;2.90;1.60;;;22.80;67.80;;;;;;5003804;28;20105;-49
2022/07/30 08:28:37;;;;;;;2.90;1.40;;;22.80;67.30;;;;;;5004476;28;20049;-47
2022/07/30 08:31:03;;;;;;;2.47;1.60;;;22.80;67.10;;;;;;5003847;28;20018;-49
2022/07/30 08:33:29;;;;;;;2.45;1.35;;;22.80;67.40;;;;;;5009069;28;20040;-48
2022/07/30 08:35:55;;;;;;;2.45;1.58;;;22.80;67.00;;;;;;5023749;28;20029;-48
2022/07/30 08:38:20;;;;;;;2.88;1.80;;;22.80;67.00;;;;;;5023652;28;20146;-48
2022/07/30 08:40:46;;;;;;;3.47;1.70;;;22.90;67.00;;;;;;5023965;28;20817;-48
2022/07/30 08:43:12;;;;;;;2.90;1.73;;;22.90;66.70;;;;;;5010203;28;20026;-47
2022/07/30 08:45:39;;;;;;;2.35;1.45;;;22.90;66.50;;;;;;5004058;28;20022;-52
2022/07/30 08:48:12;;;;;;;2.20;1.45;;;22.90;66.30;;;;;;5003850;28;20037;-48
2022/07/30 08:50:38;;;;;;;2.83;1.92;;;22.90;66.20;;;;;;5003573;28;20119;-48
2022/07/30 08:53:05;;;;;;;3.90;1.75;;;22.90;66.50;;;;;;5004282;28;20427;-48
2022/07/30 08:55:31;;;;;;;3.85;1.70;;;22.90;66.40;;;;;;5002860;28;20022;-47
2022/07/30 08:57:57;;;;;;;2.65;1.63;;;22.90;66.20;;;;;;5017127;28;20686;-49
2022/07/30 09:00:23;;;;;;;2.72;1.50;;;23.00;66.20;;;;;;5023206;28;20511;-48
2022/07/30 09:02:48;;;;;;;2.97;1.70;;;22.90;66.00;;;;;;5017864;28;20026;-47
2022/07/30 09:05:14;;;;;;;2.40;1.42;;;22.80;65.80;;;;;;5002205;28;20022;-48
2022/07/30 09:07:41;;;;;;;2.80;1.70;;;22.80;66.40;;;;;;5003486;28;20097;-49
2022/07/30 09:10:08;;;;;;;2.63;1.80;;;22.80;66.50;;;;;;5003782;28;20042;-47
2022/07/30 09:12:37;;;;;;;3.10;1.77;;;22.80;66.20;;;;;;5003705;28;20597;-49
2022/07/30 09:15:11;;;;;;;3.50;2.00;;;22.90;66.10;;;;;;4997912;28;20053;-48
2022/07/30 09:17:52;;;;;;;2.40;1.42;;;22.90;66.10;;;;;;4999264;28;20033;-49
2022/07/30 09:20:20;;;;;;;3.17;1.65;;;22.90;65.80;;;;;;4996807;28;20037;-47
2022/07/30 09:23:00;;;;;;;2.45;1.42;;;22.90;65.70;;;;;;5000476;28;20662;-49
2022/07/30 09:25:40;;;;;;;4.03;1.88;;;23.00;65.60;;;;;;5001455;28;20109;-49
2022/07/30 09:28:08;;;;;;;3.10;1.90;;;23.00;65.60;;;;;;5001918;28;20041;-48
2022/07/30 09:30:54;;;;;;;3.85;1.80;;;23.00;65.60;;;;;;5000595;28;20453;-49
2022/07/30 09:33:33;;;;;;;3.10;2.00;;;23.00;65.50;;;;;;4993931;28;20088;-50
2022/07/30 09:36:00;;;;;;;2.42;1.52;;;22.90;65.60;;;;;;5002895;28;20026;-48
2022/07/30 09:38:26;;;;;;;3.92;2.25;;;22.90;65.60;;;;;;5002182;28;20054;-48
2022/07/30 09:40:57;;;;;;;4.15;2.75;;;22.90;65.90;;;;;;5002911;28;20446;-48
2022/07/30 09:43:22;;;;;;;3.03;2.00;;;22.90;65.50;;;;;;5016144;28;20688;-48
2022/07/30 09:45:54;;;;;;;2.90;1.92;;;22.90;65.60;;;;;;5000195;28;20100;-48
2022/07/30 09:48:26;;;;;;;3.33;2.10;;;22.90;66.00;;;;;;4996364;28;20030;-48
2022/07/30 09:50:52;;;;;;;4.03;2.40;;;22.90;65.80;;;;;;5000408;28;20038;-48
2022/07/30 09:53:21;;;;;;;3.95;2.20;;;22.90;66.10;;;;;;5001050;28;20029;-47
2022/07/30 09:55:47;;;;;;;4.10;2.65;;;22.90;66.60;;;;;;5001701;28;20030;-48
2022/07/30 09:58:14;;;;;;;4.32;2.97;;;22.90;67.20;;;;;;5002338;28;20045;-49
2022/07/30 10:00:40;;;;;;;4.28;2.80;;;22.90;66.70;;;;;;5001593;28;20032;-48
2022/07/30 10:03:25;;;;;;;3.83;2.25;;;22.90;67.50;;;;;;5002259;28;20632;-48
2022/07/30 10:05:53;;;;;;;4.22;2.92;;;23.00;67.00;;;;;;5006362;28;20097;-48
2022/07/30 10:08:20;;;;;;;4.13;2.90;;;22.90;66.50;;;;;;5006463;28;20032;-48
2022/07/30 10:10:48;;;;;;;5.60;2.85;;;23.00;66.70;;;;;;5006825;28;20113;-47
2022/07/30 10:13:15;;;;;;;4.95;2.85;;;23.00;66.50;;;;;;5006509;28;20049;-47
2022/07/30 10:15:43;;;;;;;4.18;3.17;;;23.00;67.10;;;;;;5000066;28;20117;-48
2022/07/30 10:18:09;;;;;;;3.95;3.30;;;23.00;67.00;;;;;;5006732;28;20029;-47
2022/07/30 10:20:37;;;;;;;4.55;3.20;;;23.00;67.00;;;;;;5009215;28;20017;-49
2022/07/30 10:23:06;;;;;;;4.20;2.92;;;22.90;66.70;;;;;;5006472;28;20022;-47
2022/07/30 10:25:32;;;;;;;4.82;3.42;;;22.90;67.00;;;;;;5004885;28;20025;-48
2022/07/30 10:27:58;;;;;;;5.88;3.10;;;22.90;67.50;;;;;;5006933;28;20736;-49
2022/07/30 10:30:26;;;;;;;5.05;3.58;;;22.90;67.00;;;;;;5006056;28;20061;-47
2022/07/30 10:32:52;;;;;;;3.88;2.70;;;22.90;66.80;;;;;;5006110;28;20037;-48
2022/07/30 10:35:18;;;;;;;4.22;3.17;;;22.90;67.00;;;;;;5006488;28;20045;-47
2022/07/30 10:37:48;;;;;;;4.32;3.25;;;23.00;67.40;;;;;;5005946;28;20022;-49
2022/07/30 10:40:17;;;;;;;4.80;3.65;;;22.90;67.10;;;;;;5006409;28;20182;-49
2022/07/30 10:42:54;;;;;;;4.97;3.50;;;22.90;67.40;;;;;;4988040;28;20085;-49
2022/07/30 10:45:39;;;;;;;4.03;3.13;;;23.00;67.20;;;;;;5005910;28;20057;-48
2022/07/30 10:48:05;;;;;;;4.35;3.63;;;23.00;66.80;;;;;;5005643;28;20118;-47
2022/07/30 10:50:31;;;;;;;5.13;4.07;;;23.00;67.20;;;;;;5010043;28;20099;-48
2022/07/30 10:53:00;;;;;;;4.53;4.00;;;23.00;66.70;;;;;;5025978;28;20037;-48
2022/07/30 10:55:36;;;;;;;6.13;4.15;;;23.00;66.80;;;;;;5024273;28;20033;-47
2022/07/30 10:58:05;;;;;;;5.60;4.82;;;23.00;67.00;;;;;;5025034;28;20559;-47
2022/07/30 11:00:55;;;;;;;5.13;4.38;;;23.10;67.30;;;;;;5024259;28;20033;-47
2022/07/30 11:03:26;;;;;;;5.65;5.15;;;23.10;67.50;;;;;;5015372;28;20122;-47
2022/07/30 11:06:14;;;;;;;5.88;4.55;;;23.10;68.20;;;;;;5016399;28;20030;-48
2022/07/30 11:08:42;;;;;;;5.43;4.50;;;23.20;67.80;;;;;;5024407;28;20018;-47
2022/07/30 11:11:19;;;;;;;5.57;4.60;;;23.20;67.20;;;;;;5007742;28;20030;-47
2022/07/30 11:13:56;;;;;;;5.10;4.45;;;23.30;67.20;;;;;;5004580;28;20033;-47
2022/07/30 11:16:32;;;;;;;5.28;4.72;;;23.30;67.30;;;;;;5005124;28;20608;-47
2022/07/30 11:19:07;;;;;;;4.97;4.47;;;23.40;66.50;;;;;;5004707;28;20038;-51
2022/07/30 11:21:34;;;;;;;5.47;4.65;;;23.40;66.20;;;;;;5005121;28;20391;-48
2022/07/30 11:24:01;;;;;;;4.78;4.07;;;23.40;66.20;;;;;;5004976;28;20021;-48
2022/07/30 11:26:47;;;;;;;5.22;4.32;;;23.40;65.60;;;;;;5004281;28;20076;-47
2022/07/30 11:29:37;;;;;;;5.00;4.15;;;23.50;65.90;;;;;;5000945;28;20065;-47
2022/07/30 11:32:27;;;;;;;5.10;4.55;;;23.40;66.00;;;;;;5003537;28;20095;-47
2022/07/30 11:35:11;;;;;;;5.93;4.95;;;23.40;65.60;;;;;;5004908;28;20033;-47
2022/07/30 11:37:56;;;;;;;6.35;5.00;;;23.40;64.10;;;;;;4985411;28;20112;-48
2022/07/30 11:40:24;;;;;;;5.85;5.13;;;23.30;64.30;;;;;;4985528;28;20121;-48
2022/07/30 11:42:50;;;;;;;5.40;4.43;;;23.30;64.30;;;;;;4985612;28;20025;-47
2022/07/30 11:45:21;;;;;;;4.90;4.10;;;23.30;64.70;;;;;;5000119;28;20762;-47
2022/07/30 11:47:53;;;;;;;4.90;4.13;;;23.30;64.80;;;;;;4989439;28;20092;-47
2022/07/30 11:50:23;;;;;;;5.68;4.75;;;23.30;64.80;;;;;;5007446;28;20036;-47
2022/07/30 11:52:50;;;;;;;6.47;4.07;;;23.30;65.10;;;;;;5025146;28;20029;-47
2022/07/30 11:55:31;;;;;;;4.20;3.80;;;23.30;65.00;;;;;;5024007;28;20037;-48
2022/07/30 11:57:58;;;;;;;5.78;4.03;;;23.30;64.40;;;;;;5023664;28;20029;-48
2022/07/30 12:00:25;;;;;;;6.15;4.07;;;23.40;64.50;;;;;;5005360;28;20037;-49
2022/07/30 12:02:51;;;;;;;5.55;4.50;;;23.40;64.50;;;;;;4999468;28;20262;-49
2022/07/30 12:05:25;;;;;;;4.97;4.20;;;23.40;64.70;;;;;;5036488;28;20491;-50
2022/07/30 12:07:55;;;;;;;5.07;4.22;;;23.30;64.80;;;;;;5004650;28;20026;-49
2022/07/30 12:10:20;;;;;;;4.40;3.83;;;23.40;65.40;;;;;;5004881;28;20514;-49
2022/07/30 12:12:46;;;;;;;4.88;4.35;;;23.40;64.10;;;;;;5004719;28;20113;-49
2022/07/30 12:15:34;;;;;;;5.57;4.30;;;23.40;64.90;;;;;;5004421;28;20037;-48
2022/07/30 12:18:00;;;;;;;5.57;4.50;;;23.40;64.50;;;;;;5004931;28;20434;-49
2022/07/30 12:20:27;;;;;;;5.65;4.75;;;23.50;65.40;;;;;;5004525;28;20029;-50
2022/07/30 12:22:52;;;;;;;5.30;4.22;;;23.50;64.80;;;;;;5004628;28;20410;-50
2022/07/30 12:25:19;;;;;;;6.22;4.68;;;23.40;64.60;;;;;;4991686;28;20034;-48
2022/07/30 12:27:47;;;;;;;7.00;5.07;;;23.40;64.00;;;;;;4995441;28;20025;-49
2022/07/30 12:30:14;;;;;;;5.00;4.35;;;23.40;63.30;;;;;;5002523;28;20030;-48
2022/07/30 12:32:41;;;;;;;5.20;4.30;;;23.40;63.50;;;;;;5002694;28;20022;-49
2022/07/30 12:35:08;;;;;;;5.43;4.40;;;23.40;63.70;;;;;;5002040;28;20037;-49
2022/07/30 12:37:34;;;;;;;4.90;4.18;;;23.40;63.00;;;;;;5002942;28;20053;-48
2022/07/30 12:40:16;;;;;;;4.80;3.95;;;23.50;63.60;;;;;;5003813;28;20030;-50
2022/07/30 12:42:51;;;;;;;5.38;4.28;;;23.50;63.20;;;;;;5003949;28;20022;-49
2022/07/30 12:45:31;;;;;;;5.20;4.68;;;23.50;62.80;;;;;;5003312;28;20510;-50
2022/07/30 12:47:58;;;;;;;5.45;4.40;;;23.40;62.90;;;;;;5003857;28;20100;-50
2022/07/30 12:50:25;;;;;;;4.47;3.97;;;23.50;63.10;;;;;;5003402;28;20030;-49
2022/07/30 12:52:53;;;;;;;4.75;4.05;;;23.50;63.30;;;;;;5003436;28;20037;-48
2022/07/30 12:55:28;;;;;;;5.60;4.25;;;23.50;63.40;;;;;;5003024;28;20030;-48